Time;durP1;ratioP1;P1;durP2;ratioP2;P2;SDS_P1;SDS_P2;PMS_P1;PMS_P2;Temp;Humidity;BMP_temperature;BMP_pressure;BME280_temperature;BME280_humidity;BME280_pressure;Samples;Min_cycle;Max_cycle;Signal;HPM_P1;HPM_P2
2022/01/12 00:00:04;;;;;;;52.67;18.10;;;-1.00;99.90;;;;;;4864809;29;20037;-66
2022/01/12 00:02:35;;;;;;;59.78;18.27;;;-1.00;99.90;;;;;;4874587;29;20040;-66
2022/01/12 00:05:00;;;;;;;63.65;19.80;;;-1.00;99.90;;;;;;4883036;29;20043;-66
2022/01/12 00:07:26;;;;;;;60.10;18.30;;;-1.00;99.90;;;;;;4864820;29;20052;-66
2022/01/12 00:09:51;;;;;;;69.07;19.88;;;-1.00;99.90;;;;;;4880486;29;20838;-66
2022/01/12 00:12:17;;;;;;;59.83;19.42;;;-1.10;99.90;;;;;;4881079;29;20112;-66
2022/01/12 00:14:42;;;;;;;61.15;19.58;;;-1.10;99.90;;;;;;4878327;29;20033;-66
2022/01/12 00:17:08;;;;;;;63.85;19.70;;;-1.10;99.90;;;;;;4880941;29;20041;-66
2022/01/12 00:19:33;;;;;;;66.72;19.73;;;-1.10;99.90;;;;;;4881048;29;20498;-66
2022/01/12 00:21:59;;;;;;;60.58;18.70;;;-1.10;99.90;;;;;;4881904;29;20040;-66
2022/01/12 00:24:40;;;;;;;55.40;18.25;;;-1.20;99.90;;;;;;4877618;29;20040;-66
2022/01/12 00:35:25;;;;;;;38.03;12.85;;;-1.20;99.90;;;;;;4863886;29;20043;-66
2022/01/12 00:37:50;;;;;;;64.60;18.70;;;-1.20;99.90;;;;;;4844281;29;20088;-63
2022/01/12 00:40:16;;;;;;;57.38;17.90;;;-1.20;99.90;;;;;;4878400;29;20033;-63
2022/01/12 00:42:41;;;;;;;57.33;18.70;;;-1.10;99.90;;;;;;4857250;29;20036;-63
2022/01/12 00:45:08;;;;;;;54.50;18.02;;;-1.10;99.90;;;;;;4876826;29;20124;-63
2022/01/12 00:47:34;;;;;;;57.95;18.33;;;-1.10;99.90;;;;;;4850258;29;20033;-63
2022/01/12 00:50:01;;;;;;;54.78;17.40;;;-1.10;99.90;;;;;;4877831;29;20024;-63
2022/01/12 00:52:26;;;;;;;57.50;18.95;;;-1.10;99.90;;;;;;4876529;29;20083;-63
2022/01/12 00:54:52;;;;;;;55.10;18.48;;;-1.10;99.90;;;;;;4862646;29;20033;-63
2022/01/12 00:57:17;;;;;;;63.40;18.83;;;-1.10;99.90;;;;;;4875803;29;20040;-63
2022/01/12 00:59:43;;;;;;;63.33;19.00;;;-1.10;99.90;;;;;;4880099;29;20040;-63
2022/01/12 01:02:08;;;;;;;61.40;19.77;;;-1.10;99.90;;;;;;4880162;29;20489;-63
2022/01/12 01:04:34;;;;;;;56.72;18.95;;;-1.10;99.90;;;;;;4867672;29;20133;-63
2022/01/12 01:07:00;;;;;;;61.97;19.58;;;-1.10;99.90;;;;;;4851612;29;20029;-64
2022/01/12 01:09:26;;;;;;;65.70;21.00;;;-1.10;99.90;;;;;;4875995;29;20036;-63
2022/01/12 01:11:55;;;;;;;61.15;19.80;;;-1.10;99.90;;;;;;4874938;29;20036;-63
2022/01/12 01:14:33;;;;;;;60.90;19.73;;;-1.20;99.90;;;;;;4878297;29;20033;-63
2022/01/12 01:25:32;;;;;;;42.67;12.85;;;-1.00;99.90;;;;;;4860009;29;20639;-63
2022/01/12 01:27:57;;;;;;;71.70;20.90;;;-1.00;99.90;;;;;;4881343;29;20493;-63
2022/01/12 01:30:23;;;;;;;61.67;20.67;;;-1.00;99.90;;;;;;4874409;29;20040;-63
2022/01/12 01:32:50;;;;;;;68.60;20.38;;;-1.00;99.90;;;;;;4864645;29;20032;-63
2022/01/12 01:35:16;;;;;;;64.90;20.77;;;-1.00;99.90;;;;;;4873858;29;20198;-63
2022/01/12 01:37:41;;;;;;;78.10;22.08;;;-1.00;99.90;;;;;;4877749;29;20056;-63
2022/01/12 01:40:07;;;;;;;67.88;22.80;;;-0.90;99.90;;;;;;4850300;29;20036;-63
2022/01/12 01:42:55;;;;;;;64.72;20.52;;;-0.90;99.90;;;;;;4882996;29;20037;-63
2022/01/12 01:53:34;;;;;;;80.85;24.70;;;-0.90;99.90;;;;;;4864439;29;20032;-63
2022/01/12 01:56:01;;;;;;;83.32;24.05;;;-0.80;99.90;;;;;;4878430;29;20051;-63
2022/01/12 01:58:27;;;;;;;73.75;24.05;;;-0.90;99.90;;;;;;4880914;29;20044;-64
2022/01/12 02:00:53;;;;;;;72.50;22.42;;;-0.90;99.90;;;;;;4866668;29;20025;-64
2022/01/12 02:03:27;;;;;;;77.13;23.38;;;-0.90;99.90;;;;;;4870944;29;20039;-63
2022/01/12 02:05:55;;;;;;;76.38;24.10;;;-0.90;99.90;;;;;;4859862;29;20032;-63
2022/01/12 02:08:20;;;;;;;72.97;23.08;;;-1.00;99.90;;;;;;4880046;29;20037;-63
2022/01/12 02:11:10;;;;;;;76.45;24.27;;;-0.90;99.90;;;;;;4865442;29;20037;-63
2022/01/12 02:13:36;;;;;;;69.75;23.23;;;-0.90;99.90;;;;;;4871262;29;20043;-63
2022/01/12 02:16:01;;;;;;;75.80;24.30;;;-0.90;99.90;;;;;;4883333;29;20036;-63
2022/01/12 02:40:11;;;;;;;78.40;23.33;;;-0.80;99.90;;;;;;4863848;29;20033;-63
2022/01/12 02:42:41;;;;;;;85.85;24.67;;;-0.80;99.90;;;;;;4881903;29;20029;-63
2022/01/12 02:50:47;;;;;;;83.55;24.88;;;-0.80;99.90;;;;;;4879198;29;20037;-63
2022/01/12 02:55:57;;;;;;;83.13;23.23;;;-0.70;99.90;;;;;;4881027;29;20037;-63
2022/01/12 02:58:23;;;;;;;80.30;23.73;;;-0.70;99.90;;;;;;4880083;29;20112;-65
2022/01/12 03:03:22;;;;;;;83.80;25.67;;;-0.70;99.90;;;;;;4881545;29;20062;-63
2022/01/12 03:05:57;;;;;;;82.97;24.35;;;-0.80;99.90;;;;;;4849894;29;20108;-63
2022/01/12 03:08:24;;;;;;;79.85;25.40;;;-0.80;99.90;;;;;;4878504;29;20084;-63
2022/01/12 03:10:50;;;;;;;76.30;23.40;;;-0.70;99.90;;;;;;4877393;29;20028;-63
2022/01/12 03:13:15;;;;;;;81.68;23.83;;;-0.70;99.90;;;;;;4879791;29;20039;-63
2022/01/12 03:15:41;;;;;;;78.93;23.65;;;-0.80;99.90;;;;;;4877695;29;20081;-63
2022/01/12 03:18:12;;;;;;;76.55;23.23;;;-0.80;99.90;;;;;;4876329;29;20044;-63
2022/01/12 03:20:38;;;;;;;89.72;26.05;;;-0.80;99.90;;;;;;4869600;29;20032;-63
2022/01/12 03:23:04;;;;;;;87.53;25.60;;;-0.80;99.90;;;;;;4877578;29;20040;-63
2022/01/12 03:25:30;;;;;;;73.07;22.60;;;-0.70;99.90;;;;;;4880144;29;20048;-63
2022/01/12 03:28:02;;;;;;;80.85;23.92;;;-0.80;99.90;;;;;;4877235;29;20040;-63
2022/01/12 03:30:34;;;;;;;76.28;23.75;;;-0.70;99.90;;;;;;4877771;29;20029;-63
2022/01/12 03:33:17;;;;;;;83.82;24.25;;;-0.70;99.90;;;;;;4878268;29;20097;-63
2022/01/12 03:36:02;;;;;;;78.13;22.63;;;-0.70;99.90;;;;;;4866000;29;20552;-63
2022/01/12 03:38:27;;;;;;;74.57;22.80;;;-0.70;99.90;;;;;;4879165;29;20029;-63
2022/01/12 03:40:53;;;;;;;69.95;21.77;;;-0.70;99.90;;;;;;4862175;29;20084;-63
2022/01/12 03:43:18;;;;;;;70.72;22.88;;;-0.70;99.90;;;;;;4867727;29;20891;-63
2022/01/12 03:45:44;;;;;;;72.57;21.42;;;-0.70;99.90;;;;;;4878506;29;20036;-63
2022/01/12 03:48:09;;;;;;;79.03;22.88;;;-0.60;99.90;;;;;;4878092;29;20037;-63
2022/01/12 03:50:35;;;;;;;73.32;21.65;;;-0.70;99.90;;;;;;4853537;29;20685;-63
2022/01/12 03:53:01;;;;;;;66.90;21.83;;;-0.70;99.90;;;;;;4879202;29;20035;-63
2022/01/12 03:55:27;;;;;;;70.60;20.25;;;-0.70;99.90;;;;;;4877285;29;20097;-63
2022/01/12 03:57:53;;;;;;;75.32;22.33;;;-0.70;99.90;;;;;;4875786;29;20064;-63
2022/01/12 04:00:19;;;;;;;62.45;21.58;;;-0.70;99.90;;;;;;4875350;29;20793;-63
2022/01/12 04:02:44;;;;;;;65.03;21.13;;;-0.70;99.90;;;;;;4879285;29;20067;-63
2022/01/12 04:10:42;;;;;;;67.47;20.30;;;-0.60;99.90;;;;;;4876273;29;20032;-64
2022/01/12 04:13:07;;;;;;;65.30;20.52;;;-0.70;99.90;;;;;;4878581;29;20035;-63
2022/01/12 04:15:33;;;;;;;69.55;21.30;;;-0.70;99.90;;;;;;4876150;29;20039;-63
2022/01/12 04:17:59;;;;;;;67.20;20.85;;;-0.60;99.90;;;;;;4863736;29;20602;-63
2022/01/12 04:20:24;;;;;;;73.43;21.95;;;-0.60;99.90;;;;;;4876100;29;20039;-63
2022/01/12 04:23:32;;;;;;;74.40;21.35;;;-0.60;99.90;;;;;;4866710;29;20093;-63
2022/01/12 04:25:39;;;;;;;72.47;23.48;;;-0.60;99.90;;;;;;4871285;29;20044;-63
2022/01/12 04:28:05;;;;;;;78.60;23.38;;;-0.50;99.90;;;;;;4878074;29;20068;-63
2022/01/12 04:30:30;;;;;;;81.78;23.17;;;-0.60;99.90;;;;;;4882222;29;20160;-63
2022/01/12 04:32:56;;;;;;;80.72;22.55;;;-0.50;99.90;;;;;;4866591;29;20033;-63
2022/01/12 04:35:25;;;;;;;72.93;21.83;;;-0.60;99.90;;;;;;4867101;29;20124;-64
2022/01/12 04:37:51;;;;;;;77.63;22.05;;;-0.70;99.90;;;;;;4859872;29;20025;-64
2022/01/12 04:40:16;;;;;;;69.80;21.50;;;-0.70;99.90;;;;;;4878500;29;20039;-63
2022/01/12 04:42:42;;;;;;;77.10;21.27;;;-0.60;99.90;;;;;;4868952;29;20131;-63
2022/01/12 04:50:22;;;;;;;69.45;20.42;;;-0.60;99.90;;;;;;4865841;29;20331;-63
2022/01/12 04:52:47;;;;;;;70.38;21.35;;;-0.60;99.90;;;;;;4877838;29;20800;-63
2022/01/12 04:55:13;;;;;;;69.97;20.95;;;-0.60;99.90;;;;;;4873606;29;20029;-63
2022/01/12 04:57:39;;;;;;;72.72;20.20;;;-0.60;99.90;;;;;;4875714;29;20043;-64
2022/01/12 05:00:11;;;;;;;74.30;20.98;;;-0.60;99.90;;;;;;4863129;29;20028;-63
2022/01/12 05:13:26;;;;;;;74.80;20.40;;;-0.60;99.90;;;;;;4867082;29;20036;-63
2022/01/12 05:15:53;;;;;;;60.53;18.95;;;-0.50;99.90;;;;;;4861523;29;20033;-64
2022/01/12 05:18:19;;;;;;;65.25;19.02;;;-0.60;99.90;;;;;;4879157;29;20052;-63
2022/01/12 05:20:45;;;;;;;71.70;19.83;;;-0.60;99.90;;;;;;4881272;29;20485;-63
2022/01/12 05:23:10;;;;;;;63.50;20.55;;;-0.60;99.90;;;;;;4874432;29;20103;-63
2022/01/12 05:25:36;;;;;;;62.78;18.55;;;-0.60;99.90;;;;;;4853116;29;20020;-63
2022/01/12 05:28:01;;;;;;;58.08;18.20;;;-0.60;99.90;;;;;;4878298;29;20048;-63
2022/01/12 05:30:27;;;;;;;61.67;19.52;;;-0.50;99.90;;;;;;4877474;29;20405;-63
2022/01/12 05:32:53;;;;;;;53.63;18.90;;;-0.50;99.90;;;;;;4863873;29;20739;-63
2022/01/12 05:35:20;;;;;;;65.22;19.38;;;-0.40;99.90;;;;;;4876453;29;20025;-63
2022/01/12 05:37:45;;;;;;;59.67;19.63;;;-0.50;99.90;;;;;;4860425;29;20085;-63
2022/01/12 05:40:11;;;;;;;66.57;19.40;;;-0.50;99.90;;;;;;4877452;29;20040;-63
2022/01/12 05:42:38;;;;;;;69.20;19.15;;;-0.50;99.90;;;;;;4879697;29;20122;-63
2022/01/12 05:45:05;;;;;;;68.57;19.42;;;-0.40;99.90;;;;;;4868258;29;20155;-63
2022/01/12 05:49:34;;;;;;;65.50;18.08;;;-0.50;99.90;;;;;;4879005;29;20079;-63
2022/01/12 05:50:30;;;;;;;58.50;17.83;;;-0.50;99.90;;;;;;4858678;29;20568;-63
2022/01/12 05:53:00;;;;;;;64.88;18.27;;;-0.50;99.90;;;;;;4874352;29;20024;-63
2022/01/12 05:55:26;;;;;;;62.03;17.23;;;-0.50;99.90;;;;;;4877103;29;20040;-63
2022/01/12 05:57:51;;;;;;;66.72;18.38;;;-0.50;99.90;;;;;;4861119;29;20397;-63
2022/01/12 06:00:17;;;;;;;68.10;19.48;;;-0.60;99.90;;;;;;4877927;29;20048;-63
2022/01/12 06:02:50;;;;;;;72.88;19.88;;;-0.60;99.90;;;;;;4861913;29;20032;-63
2022/01/12 06:05:18;;;;;;;62.47;17.73;;;-0.60;99.90;;;;;;4876444;29;20047;-63
2022/01/12 06:07:44;;;;;;;76.18;20.48;;;-0.60;99.90;;;;;;4857636;29;20040;-63
2022/01/12 06:10:09;;;;;;;73.90;21.00;;;-0.70;99.90;;;;;;4879400;29;20033;-63
2022/01/12 06:12:36;;;;;;;69.82;19.73;;;-0.80;99.90;;;;;;4876404;29;20397;-63
2022/01/12 06:15:01;;;;;;;74.45;19.80;;;-0.80;99.90;;;;;;4874146;29;20055;-63
2022/01/12 06:17:28;;;;;;;75.95;20.80;;;-0.80;99.90;;;;;;4879579;29;20041;-63
2022/01/12 06:19:53;;;;;;;72.18;20.52;;;-0.80;99.90;;;;;;4878674;29;20855;-63
2022/01/12 06:22:33;;;;;;;75.63;20.20;;;-0.80;99.90;;;;;;4871200;29;20101;-63
2022/01/12 06:25:00;;;;;;;82.72;21.88;;;-0.80;99.90;;;;;;4868762;29;20037;-63
2022/01/12 06:27:30;;;;;;;75.22;20.70;;;-0.90;99.90;;;;;;4869889;29;20067;-64
2022/01/12 06:33:00;;;;;;;73.93;20.33;;;-1.00;99.90;;;;;;4864385;29;20583;-64
2022/01/12 06:35:25;;;;;;;70.60;19.08;;;-1.10;99.90;;;;;;4845854;29;20033;-63
2022/01/12 06:37:51;;;;;;;71.70;19.15;;;-1.10;99.90;;;;;;4873023;29;20498;-63
2022/01/12 06:40:17;;;;;;;74.30;19.33;;;-1.10;99.90;;;;;;4879628;29;20036;-63
2022/01/12 06:42:43;;;;;;;66.40;18.77;;;-1.10;99.90;;;;;;4878622;29;20504;-63
2022/01/12 06:45:09;;;;;;;71.45;20.92;;;-1.10;99.90;;;;;;4882871;29;20029;-63
2022/01/12 06:47:35;;;;;;;82.88;18.80;;;-1.00;99.90;;;;;;4853445;29;20040;-64
2022/01/12 06:50:00;;;;;;;91.20;21.75;;;-1.00;99.90;;;;;;4871622;29;20033;-63
2022/01/12 06:52:26;;;;;;;77.90;21.42;;;-1.00;99.90;;;;;;4857106;29;20072;-64
2022/01/12 06:54:52;;;;;;;80.22;20.83;;;-1.00;99.90;;;;;;4880518;29;20024;-63
2022/01/12 06:57:17;;;;;;;80.90;21.50;;;-0.90;99.90;;;;;;4878734;29;20794;-65
2022/01/12 06:59:43;;;;;;;76.22;22.00;;;-0.90;99.90;;;;;;4869103;29;20036;-64
2022/01/12 07:02:09;;;;;;;74.93;19.73;;;-0.80;99.90;;;;;;4867210;29;20068;-64
2022/01/12 07:04:37;;;;;;;77.97;20.38;;;-0.80;99.90;;;;;;4869996;29;20079;-64
2022/01/12 07:07:04;;;;;;;85.07;21.70;;;-0.70;99.90;;;;;;4868156;29;20037;-63
2022/01/12 07:09:30;;;;;;;97.80;22.73;;;-0.70;99.90;;;;;;4869701;29;20044;-64
2022/01/12 07:12:00;;;;;;;90.75;22.92;;;-0.70;99.90;;;;;;4879172;29;20564;-64
2022/01/12 07:14:31;;;;;;;81.32;21.33;;;-0.60;99.90;;;;;;4878655;29;20091;-64
2022/01/12 07:16:58;;;;;;;88.65;23.25;;;-0.50;99.90;;;;;;4853524;29;20432;-63
2022/01/12 07:19:24;;;;;;;96.22;23.52;;;-0.50;99.90;;;;;;4885921;29;20048;-63
2022/01/12 07:21:50;;;;;;;90.25;23.92;;;-0.40;99.90;;;;;;4856825;29;20039;-63
2022/01/12 07:24:15;;;;;;;94.35;22.77;;;-0.40;99.90;;;;;;4884313;29;20036;-63
2022/01/12 07:26:41;;;;;;;96.43;25.70;;;-0.40;99.90;;;;;;4851659;29;20040;-65
2022/01/12 07:29:09;;;;;;;76.85;20.58;;;-0.40;99.90;;;;;;4867981;29;20147;-65
2022/01/12 07:31:35;;;;;;;99.53;23.58;;;-0.30;99.90;;;;;;4885967;29;20119;-63
2022/01/12 07:34:00;;;;;;;95.50;27.38;;;-0.20;99.90;;;;;;4882443;29;20036;-63
2022/01/12 07:36:26;;;;;;;86.95;26.83;;;-0.20;99.90;;;;;;4855263;29;20196;-63
2022/01/12 07:38:55;;;;;;;111.40;29.05;;;-0.10;99.90;;;;;;4882891;29;20025;-63
2022/01/12 07:41:21;;;;;;;89.07;23.63;;;-0.10;99.90;;;;;;4885133;29;20417;-63
2022/01/12 07:43:46;;;;;;;79.80;22.70;;;0.00;99.90;;;;;;4863299;29;20061;-63
2022/01/12 07:46:12;;;;;;;85.85;21.65;;;0.00;99.90;;;;;;4884406;29;20165;-63
2022/01/12 07:48:37;;;;;;;80.57;23.75;;;-0.10;99.90;;;;;;4890450;29;20527;-63
2022/01/12 07:51:02;;;;;;;77.05;22.55;;;-0.10;99.90;;;;;;4884412;29;20032;-63
2022/01/12 07:53:28;;;;;;;73.20;20.77;;;0.00;99.90;;;;;;4881110;29;20120;-63
2022/01/12 07:55:53;;;;;;;81.75;22.20;;;0.10;99.90;;;;;;4879752;29;20034;-63
2022/01/12 07:58:19;;;;;;;68.78;20.00;;;0.20;99.90;;;;;;4879618;29;20036;-61
2022/01/12 08:00:44;;;;;;;80.82;21.77;;;0.20;99.90;;;;;;4883036;29;20041;-61
2022/01/12 08:03:12;;;;;;;68.18;20.02;;;0.30;99.90;;;;;;4885605;29;20033;-61
2022/01/12 08:05:37;;;;;;;66.82;20.17;;;0.40;99.90;;;;;;4883738;29;20512;-61
2022/01/12 08:08:03;;;;;;;73.10;21.27;;;0.50;99.90;;;;;;4878581;29;20119;-61
2022/01/12 08:10:30;;;;;;;64.00;20.55;;;0.60;99.90;;;;;;4867881;29;20139;-61
2022/01/12 08:12:55;;;;;;;66.85;21.35;;;0.70;99.90;;;;;;4880980;29;20024;-61
2022/01/12 08:15:21;;;;;;;70.82;21.70;;;0.60;99.90;;;;;;4852709;29;20549;-61
2022/01/12 08:17:46;;;;;;;76.13;23.65;;;0.70;99.90;;;;;;4886047;29;20045;-61
2022/01/12 08:20:14;;;;;;;63.95;20.27;;;0.70;99.90;;;;;;4884253;29;20074;-61
2022/01/12 08:22:39;;;;;;;59.00;19.10;;;0.80;99.90;;;;;;4884574;29;20563;-61
2022/01/12 08:25:05;;;;;;;62.00;19.35;;;0.80;99.90;;;;;;4876531;29;20041;-61
2022/01/12 08:27:31;;;;;;;57.05;18.63;;;0.90;99.90;;;;;;4864567;29;20052;-60
2022/01/12 08:30:01;;;;;;;67.35;21.55;;;1.00;99.90;;;;;;4883860;29;20059;-61
2022/01/12 08:32:26;;;;;;;68.68;21.15;;;1.00;99.90;;;;;;4885797;29;20768;-64
2022/01/12 08:34:52;;;;;;;60.55;20.67;;;1.00;99.90;;;;;;4878884;29;20036;-61
2022/01/12 08:37:17;;;;;;;91.22;30.33;;;1.10;99.90;;;;;;4872665;29;20127;-61
2022/01/12 08:39:43;;;;;;;65.25;22.08;;;1.20;99.90;;;;;;4887269;29;20032;-62
2022/01/12 08:42:08;;;;;;;105.60;38.80;;;1.30;99.90;;;;;;4885944;29;20493;-61
2022/01/12 08:44:35;;;;;;;90.43;33.58;;;1.40;99.90;;;;;;4885294;29;20052;-64
2022/01/12 08:47:00;;;;;;;71.90;24.10;;;1.50;99.90;;;;;;4883347;29;20044;-64
2022/01/12 08:49:26;;;;;;;59.58;20.95;;;1.60;99.90;;;;;;4883209;29;20051;-64
2022/01/12 08:51:51;;;;;;;64.55;20.73;;;1.60;99.90;;;;;;4882872;29;20029;-64
2022/01/12 08:54:17;;;;;;;71.00;23.52;;;1.60;99.90;;;;;;4882652;29;20033;-64
2022/01/12 08:56:42;;;;;;;61.50;20.55;;;1.60;99.90;;;;;;4883126;29;20047;-62
2022/01/12 08:59:08;;;;;;;67.60;20.75;;;1.70;99.90;;;;;;4884483;29;20067;-62
2022/01/12 09:01:33;;;;;;;59.10;19.08;;;1.70;99.90;;;;;;4881768;29;20035;-62
2022/01/12 09:03:59;;;;;;;49.70;18.13;;;1.70;99.90;;;;;;4882072;29;20952;-62
2022/01/12 09:06:24;;;;;;;50.65;17.30;;;1.80;99.90;;;;;;4878369;29;20044;-62
2022/01/12 09:08:50;;;;;;;55.38;18.90;;;1.80;99.90;;;;;;4874796;29;20544;-62
2022/01/12 09:11:15;;;;;;;58.03;20.27;;;1.80;99.90;;;;;;4882239;29;20529;-62
2022/01/12 09:13:41;;;;;;;77.70;27.30;;;1.90;99.90;;;;;;4884507;29;20032;-62
2022/01/12 09:16:08;;;;;;;76.55;27.05;;;2.00;99.90;;;;;;4873437;29;20029;-62
2022/01/12 09:18:34;;;;;;;60.17;20.52;;;2.10;99.90;;;;;;4862077;29;20124;-62
2022/01/12 09:20:59;;;;;;;60.17;18.35;;;2.10;99.90;;;;;;4865181;29;20060;-62
2022/01/12 09:23:25;;;;;;;52.35;19.70;;;2.10;99.90;;;;;;4880751;29;20040;-62
2022/01/12 09:25:50;;;;;;;49.70;17.08;;;2.20;99.90;;;;;;4870813;29;20070;-65
2022/01/12 09:28:17;;;;;;;50.13;17.20;;;2.20;99.90;;;;;;4878674;29;20036;-62
2022/01/12 09:30:42;;;;;;;43.55;15.07;;;2.30;99.90;;;;;;4855049;29;20036;-62
2022/01/12 09:33:08;;;;;;;51.03;17.42;;;2.30;99.90;;;;;;4873585;29;20029;-62
2022/01/12 09:35:33;;;;;;;46.03;16.55;;;2.30;99.90;;;;;;4869307;29;20782;-62
2022/01/12 09:37:59;;;;;;;47.53;17.13;;;2.40;99.90;;;;;;4872466;29;20035;-62
2022/01/12 09:40:24;;;;;;;45.30;16.15;;;2.50;99.90;;;;;;4874253;29;20068;-62
2022/01/12 09:42:50;;;;;;;46.88;15.20;;;2.70;99.90;;;;;;4874840;29;20520;-62
2022/01/12 09:45:17;;;;;;;36.72;13.57;;;2.80;99.90;;;;;;4874170;29;20029;-62
2022/01/12 09:47:43;;;;;;;40.63;15.57;;;2.80;99.90;;;;;;4871256;29;20053;-62
2022/01/12 09:50:08;;;;;;;46.22;20.17;;;2.90;99.90;;;;;;4874460;29;20033;-61
2022/01/12 09:52:34;;;;;;;42.72;17.25;;;3.00;99.90;;;;;;4880461;29;20044;-62
2022/01/12 09:54:59;;;;;;;50.47;20.13;;;3.10;99.90;;;;;;4874692;29;20731;-62
2022/01/12 09:57:25;;;;;;;54.30;23.58;;;3.10;99.90;;;;;;4874438;29;20124;-62
2022/01/12 09:59:50;;;;;;;51.08;19.92;;;3.20;99.90;;;;;;4853593;29;20040;-62
2022/01/12 10:02:16;;;;;;;83.97;39.22;;;3.20;99.90;;;;;;4872303;29;20064;-62
2022/01/12 10:04:41;;;;;;;46.60;15.10;;;3.20;99.90;;;;;;4880035;29;20104;-62
2022/01/12 10:07:07;;;;;;;41.58;15.30;;;3.20;99.90;;;;;;4863836;29;20490;-62
2022/01/12 10:09:33;;;;;;;46.17;18.02;;;3.20;99.90;;;;;;4874565;29;20124;-61
2022/01/12 10:12:01;;;;;;;35.72;14.02;;;3.30;99.90;;;;;;4871344;29;20033;-62
2022/01/12 10:14:29;;;;;;;47.40;16.02;;;3.30;99.90;;;;;;4849550;29;20644;-62
2022/01/12 10:16:54;;;;;;;44.08;14.02;;;3.30;99.90;;;;;;4855942;29;20100;-61
2022/01/12 10:19:20;;;;;;;34.63;14.40;;;3.30;99.90;;;;;;4876943;29;20523;-61
2022/01/12 10:21:45;;;;;;;36.92;14.65;;;3.20;99.90;;;;;;4860405;29;20036;-61
2022/01/12 10:24:11;;;;;;;38.10;14.95;;;3.20;99.90;;;;;;4872706;29;20101;-62
2022/01/12 10:26:37;;;;;;;39.53;15.20;;;3.10;99.90;;;;;;4857297;29;20024;-62
2022/01/12 10:29:05;;;;;;;39.92;15.20;;;3.10;99.90;;;;;;4874286;29;20040;-62
2022/01/12 10:31:30;;;;;;;38.95;14.70;;;3.10;99.90;;;;;;4867576;29;20070;-62
2022/01/12 10:33:56;;;;;;;36.40;14.55;;;3.20;99.90;;;;;;4876874;29;20044;-61
2022/01/12 10:36:21;;;;;;;36.80;14.10;;;3.20;99.90;;;;;;4879816;29;20043;-61
2022/01/12 10:38:47;;;;;;;36.90;14.52;;;3.20;99.90;;;;;;4876286;29;20029;-61
2022/01/12 10:41:12;;;;;;;38.53;14.20;;;3.20;99.90;;;;;;4872560;29;20037;-61
2022/01/12 10:43:38;;;;;;;36.60;14.15;;;3.10;99.90;;;;;;4874484;29;20033;-61
2022/01/12 10:46:03;;;;;;;38.13;14.18;;;3.10;99.90;;;;;;4877562;29;20036;-61
2022/01/12 10:48:29;;;;;;;37.22;15.05;;;3.10;99.90;;;;;;4868612;29;20033;-61
2022/01/12 10:50:54;;;;;;;37.88;14.27;;;3.10;99.90;;;;;;4876751;29;20024;-61
2022/01/12 10:53:20;;;;;;;40.70;15.30;;;3.10;99.90;;;;;;4875083;29;20493;-61
2022/01/12 10:55:45;;;;;;;42.22;15.50;;;3.10;99.90;;;;;;4872414;29;20812;-61
2022/01/12 10:58:11;;;;;;;39.38;15.50;;;3.20;99.90;;;;;;4872004;29;20044;-61
2022/01/12 11:00:36;;;;;;;43.97;18.00;;;3.20;99.90;;;;;;4855876;29;20035;-62
2022/01/12 11:03:02;;;;;;;36.85;13.73;;;3.20;99.90;;;;;;4878174;29;20044;-62
2022/01/12 11:05:27;;;;;;;38.83;14.70;;;3.30;99.90;;;;;;4856924;29;20045;-61
2022/01/12 11:07:53;;;;;;;41.22;15.85;;;3.30;99.90;;;;;;4873858;29;20076;-62
2022/01/12 11:10:19;;;;;;;38.38;14.93;;;3.30;99.90;;;;;;4875799;29;20186;-61
2022/01/12 11:12:44;;;;;;;39.55;15.73;;;3.30;99.90;;;;;;4874408;29;20075;-61
2022/01/12 11:15:10;;;;;;;46.25;15.80;;;3.30;99.90;;;;;;4876330;29;20752;-61
2022/01/12 11:17:38;;;;;;;39.90;15.68;;;3.20;99.90;;;;;;4875985;29;20039;-62
2022/01/12 11:20:03;;;;;;;34.10;15.32;;;3.30;99.90;;;;;;4879156;29;20051;-62
2022/01/12 11:22:28;;;;;;;50.63;17.63;;;3.30;99.90;;;;;;4875646;29;20037;-62
2022/01/12 11:24:54;;;;;;;39.05;16.05;;;3.30;99.90;;;;;;4858993;29;20481;-62
2022/01/12 11:27:19;;;;;;;46.47;17.33;;;3.30;99.90;;;;;;4874816;29;20076;-64
2022/01/12 11:29:45;;;;;;;48.65;17.75;;;3.20;99.90;;;;;;4873628;29;20035;-62
2022/01/12 11:32:13;;;;;;;50.50;18.90;;;3.20;99.90;;;;;;4873542;29;20537;-62
2022/01/12 11:34:39;;;;;;;46.17;18.20;;;3.20;99.90;;;;;;4874698;29;20036;-62
2022/01/12 11:37:04;;;;;;;48.15;18.48;;;3.20;99.90;;;;;;4870383;29;20083;-62
2022/01/12 11:39:29;;;;;;;50.35;19.33;;;3.30;99.90;;;;;;4873194;29;20047;-62
2022/01/12 11:41:55;;;;;;;50.05;18.23;;;3.30;99.90;;;;;;4872521;29;20042;-62
2022/01/12 11:44:22;;;;;;;51.13;17.65;;;3.30;99.90;;;;;;4875830;29;20497;-62
2022/01/12 11:46:48;;;;;;;51.72;18.98;;;3.20;99.90;;;;;;4878823;29;20107;-62
2022/01/12 11:49:13;;;;;;;53.85;19.40;;;3.20;99.90;;;;;;4871579;29;20697;-62
2022/01/12 11:51:39;;;;;;;62.72;20.23;;;3.20;99.90;;;;;;4850643;29;20958;-62
2022/01/12 11:54:04;;;;;;;54.25;18.85;;;3.20;99.90;;;;;;4868772;29;20032;-62
2022/01/12 11:56:30;;;;;;;48.25;18.98;;;3.20;99.90;;;;;;4873528;29;20860;-62
2022/01/12 11:58:55;;;;;;;56.75;19.17;;;3.20;99.90;;;;;;4862239;29;20075;-62
2022/01/12 12:01:22;;;;;;;54.45;18.60;;;3.20;99.90;;;;;;4875884;29;20107;-62
2022/01/12 12:03:48;;;;;;;55.00;19.42;;;3.30;99.90;;;;;;4862164;29;20039;-63
2022/01/12 12:06:13;;;;;;;53.65;20.00;;;3.30;99.90;;;;;;4877310;29;20738;-62
2022/01/12 12:08:39;;;;;;;60.05;20.40;;;3.30;99.90;;;;;;4873790;29;20060;-63
2022/01/12 12:11:04;;;;;;;61.42;20.70;;;3.40;99.90;;;;;;4855020;29;20089;-62
2022/01/12 12:13:30;;;;;;;56.28;20.17;;;3.40;99.90;;;;;;4867863;29;20057;-63
2022/01/12 12:15:55;;;;;;;61.60;21.20;;;3.40;99.90;;;;;;4873738;29;20384;-62
2022/01/12 12:18:22;;;;;;;47.47;19.48;;;3.50;99.90;;;;;;4870531;29;20049;-62
2022/01/12 12:20:48;;;;;;;50.53;20.23;;;3.50;99.90;;;;;;4858218;29;20047;-62
2022/01/12 12:23:14;;;;;;;52.90;20.02;;;3.60;99.90;;;;;;4869136;29;20414;-62
2022/01/12 12:25:39;;;;;;;59.70;21.55;;;3.50;99.90;;;;;;4874326;29;20072;-62
2022/01/12 12:28:05;;;;;;;53.25;20.48;;;3.60;99.90;;;;;;4856086;29;20108;-62
2022/01/12 12:30:30;;;;;;;54.90;20.15;;;3.60;99.90;;;;;;4873744;29;20080;-62
2022/01/12 12:32:56;;;;;;;52.00;20.65;;;3.70;99.90;;;;;;4859239;29;20037;-62
2022/01/12 12:35:21;;;;;;;57.83;23.35;;;3.70;99.90;;;;;;4867706;29;20481;-63
2022/01/12 12:37:47;;;;;;;53.08;21.63;;;3.70;99.90;;;;;;4865790;29;20073;-62
2022/01/12 12:40:12;;;;;;;56.38;21.17;;;3.70;99.90;;;;;;4873607;29;20079;-62
2022/01/12 12:42:38;;;;;;;58.25;21.17;;;3.80;99.90;;;;;;4866668;29;20096;-62
2022/01/12 12:45:03;;;;;;;53.72;20.65;;;3.70;99.90;;;;;;4877900;29;20084;-62
2022/01/12 12:47:29;;;;;;;58.55;22.02;;;3.80;99.90;;;;;;4858307;29;20124;-62
2022/01/12 12:49:57;;;;;;;62.85;22.17;;;3.80;99.90;;;;;;4871640;29;20040;-62
2022/01/12 12:52:22;;;;;;;64.80;23.83;;;3.80;99.90;;;;;;4879478;29;20517;-62
2022/01/12 12:54:48;;;;;;;62.92;23.40;;;3.80;99.90;;;;;;4877842;29;20024;-62
2022/01/12 12:57:20;;;;;;;60.70;22.90;;;3.80;99.90;;;;;;4869342;29;20477;-62
2022/01/12 12:59:47;;;;;;;60.13;22.40;;;3.80;99.90;;;;;;4868731;29;20087;-62
2022/01/12 13:02:12;;;;;;;61.30;23.33;;;3.80;99.90;;;;;;4880571;29;20054;-62
2022/01/12 13:04:37;;;;;;;71.82;23.98;;;3.80;99.90;;;;;;4883419;29;20138;-62
2022/01/12 13:07:03;;;;;;;71.32;23.75;;;3.80;99.90;;;;;;4879614;29;20454;-62
2022/01/12 13:09:28;;;;;;;64.50;25.05;;;3.90;99.90;;;;;;4873660;29;20029;-63
2022/01/12 13:11:54;;;;;;;68.68;22.80;;;3.90;99.90;;;;;;4884186;29;20462;-63
2022/01/12 13:14:20;;;;;;;66.13;24.50;;;3.90;99.90;;;;;;4877730;29;20373;-63
2022/01/12 13:16:46;;;;;;;69.63;23.63;;;4.00;99.90;;;;;;4865561;29;20041;-63
2022/01/12 13:19:23;;;;;;;61.03;23.20;;;4.00;99.90;;;;;;4859273;29;20040;-63
2022/01/12 13:21:48;;;;;;;83.20;31.27;;;4.00;99.90;;;;;;4874863;29;20073;-63
2022/01/12 13:24:14;;;;;;;69.78;24.60;;;4.00;99.90;;;;;;4871176;29;20028;-63
2022/01/12 13:26:39;;;;;;;65.35;23.90;;;4.10;99.90;;;;;;4872120;29;20028;-66
2022/01/12 13:29:05;;;;;;;65.45;24.13;;;4.10;99.90;;;;;;4863367;29;20472;-63
2022/01/12 13:31:30;;;;;;;64.65;23.95;;;4.00;99.90;;;;;;4868414;29;20033;-63
2022/01/12 13:33:56;;;;;;;62.88;24.08;;;4.00;99.90;;;;;;4869718;29;20074;-63
2022/01/12 13:36:21;;;;;;;74.93;24.85;;;4.10;99.90;;;;;;4865498;29;20047;-63
2022/01/12 13:38:47;;;;;;;69.47;24.17;;;4.00;99.90;;;;;;4880734;29;20514;-63
2022/01/12 13:41:12;;;;;;;73.70;25.65;;;4.10;99.90;;;;;;4876730;29;20032;-65
2022/01/12 13:43:39;;;;;;;129.40;57.95;;;4.00;99.90;;;;;;4876341;29;20036;-63
2022/01/12 13:46:11;;;;;;;76.45;27.00;;;4.00;99.90;;;;;;4874205;29;20424;-63
2022/01/12 13:48:37;;;;;;;73.20;25.95;;;4.10;99.90;;;;;;4876864;29;20029;-62